Time;durP1;ratioP1;P1;durP2;ratioP2;P2;SDS_P1;SDS_P2;PMS_P1;PMS_P2;Temp;Humidity;BMP_temperature;BMP_pressure;BME280_temperature;BME280_humidity;BME280_pressure;Samples;Min_cycle;Max_cycle;Signal;HPM_P1;HPM_P2
2023/12/14 00:01:46;;;;;;;40.60;18.45;;;;;;;;;;5013124;28;20405;-73
2023/12/14 00:04:12;;;;;;;42.67;18.15;;;;;;;;;;4997180;28;20451;-73
2023/12/14 00:06:37;;;;;;;38.25;18.08;;;;;;;;;;4981546;28;20196;-75
2023/12/14 00:09:03;;;;;;;35.90;16.60;;;;;;;;;;4998551;28;20486;-70
2023/12/14 00:11:29;;;;;;;38.78;17.30;;;;;;;;;;4996882;28;20029;-74
2023/12/14 00:13:55;;;;;;;44.92;18.70;;;;;;;;;;4998255;28;20032;-73
2023/12/14 00:16:20;;;;;;;37.90;17.75;;;;;;;;;;5015004;28;20025;-74
2023/12/14 00:18:46;;;;;;;40.67;17.35;;;;;;;;;;5014163;28;20535;-73
2023/12/14 00:21:11;;;;;;;27.85;15.77;;;;;;;;;;5014806;28;20021;-75
2023/12/14 00:23:37;;;;;;;28.50;14.45;;;;;;;;;;5014409;28;20062;-74
2023/12/14 00:26:03;;;;;;;26.95;14.38;;;;;;;;;;4997082;28;20030;-73
2023/12/14 00:28:28;;;;;;;24.90;14.85;;;;;;;;;;4996971;28;20041;-73
2023/12/14 00:30:54;;;;;;;32.47;15.23;;;;;;;;;;5013553;28;20038;-74
2023/12/14 00:33:21;;;;;;;28.73;14.63;;;;;;;;;;5013271;28;20034;-73
2023/12/14 00:35:46;;;;;;;25.00;14.63;;;;;;;;;;4995414;28;20101;-73
2023/12/14 00:38:12;;;;;;;29.83;15.07;;;;;;;;;;4995693;28;20029;-74
2023/12/14 00:40:37;;;;;;;29.98;15.52;;;;;;;;;;4995212;28;20022;-73
2023/12/14 00:43:03;;;;;;;27.58;14.93;;;;;;;;;;4995220;28;20068;-73
2023/12/14 00:45:29;;;;;;;35.15;15.70;;;;;;;;;;5012566;28;20500;-74
2023/12/14 00:47:55;;;;;;;25.42;14.18;;;;;;;;;;5012328;28;20030;-74
2023/12/14 00:50:21;;;;;;;29.92;15.48;;;;;;;;;;5011516;28;20053;-75
2023/12/14 00:52:46;;;;;;;29.85;14.77;;;;;;;;;;4994837;28;20033;-75
2023/12/14 00:55:12;;;;;;;26.38;13.85;;;;;;;;;;4995122;28;20033;-72
2023/12/14 00:57:37;;;;;;;29.35;14.40;;;;;;;;;;5012683;28;20026;-72
2023/12/14 01:00:04;;;;;;;30.73;14.63;;;;;;;;;;5012640;28;20053;-74
2023/12/14 01:02:29;;;;;;;26.33;14.52;;;;;;;;;;4994866;28;20091;-74
2023/12/14 01:04:55;;;;;;;33.15;15.48;;;;;;;;;;4995779;28;20033;-73
2023/12/14 01:07:20;;;;;;;30.13;14.68;;;;;;;;;;4994459;28;20379;-74
2023/12/14 01:09:46;;;;;;;29.83;16.35;;;;;;;;;;4994758;28;20096;-75
2023/12/14 01:12:12;;;;;;;26.77;13.38;;;;;;;;;;4995360;28;20060;-74
2023/12/14 01:14:37;;;;;;;27.63;13.52;;;;;;;;;;5012344;28;20093;-73
2023/12/14 01:17:03;;;;;;;26.15;12.50;;;;;;;;;;5013852;28;20041;-76
2023/12/14 01:19:28;;;;;;;25.85;12.43;;;;;;;;;;5014700;28;20038;-75
2023/12/14 01:21:55;;;;;;;24.33;12.68;;;;;;;;;;4996905;28;20101;-74
2023/12/14 01:24:20;;;;;;;31.50;14.70;;;;;;;;;;4995537;28;20099;-72
2023/12/14 01:26:46;;;;;;;33.00;15.57;;;;;;;;;;4995151;28;20496;-74
2023/12/14 01:29:12;;;;;;;29.23;13.38;;;;;;;;;;5012739;28;20037;-74
2023/12/14 01:31:37;;;;;;;30.92;14.70;;;;;;;;;;5012237;28;20038;-74
2023/12/14 01:34:03;;;;;;;25.88;13.43;;;;;;;;;;4994972;28;20030;-74
2023/12/14 01:36:29;;;;;;;25.88;13.80;;;;;;;;;;5011931;28;20422;-74
2023/12/14 01:38:54;;;;;;;26.05;13.35;;;;;;;;;;5013072;28;20462;-73
2023/12/14 01:41:20;;;;;;;29.55;14.43;;;;;;;;;;5012601;28;20365;-74
2023/12/14 01:43:45;;;;;;;25.90;13.23;;;;;;;;;;4994698;28;20026;-73
2023/12/14 01:46:11;;;;;;;27.02;12.75;;;;;;;;;;4994204;28;20025;-73
2023/12/14 01:48:37;;;;;;;30.05;14.63;;;;;;;;;;5011589;28;20033;-73
2023/12/14 01:51:03;;;;;;;29.88;15.80;;;;;;;;;;4994214;28;20124;-75
2023/12/14 01:53:28;;;;;;;30.02;13.98;;;;;;;;;;4993782;28;20492;-73
2023/12/14 01:55:54;;;;;;;29.70;14.45;;;;;;;;;;4993588;28;20124;-73
2023/12/14 01:58:20;;;;;;;34.60;15.18;;;;;;;;;;4993002;28;20045;-73
2023/12/14 02:00:57;;;;;;;30.38;14.35;;;;;;;;;;4993976;28;20036;-72
2023/12/14 02:03:23;;;;;;;30.08;15.63;;;;;;;;;;4991591;28;20022;-73
2023/12/14 02:05:49;;;;;;;32.22;14.98;;;;;;;;;;4991689;28;20561;-73
2023/12/14 02:08:14;;;;;;;27.33;14.00;;;;;;;;;;5010684;28;20048;-74
2023/12/14 02:10:40;;;;;;;29.30;14.02;;;;;;;;;;4993625;28;20063;-74
2023/12/14 02:13:05;;;;;;;31.77;15.35;;;;;;;;;;5011689;28;20036;-76
2023/12/14 02:15:31;;;;;;;30.98;14.45;;;;;;;;;;4994239;28;20060;-76
2023/12/14 02:17:56;;;;;;;33.38;15.07;;;;;;;;;;4995484;28;20030;-74
2023/12/14 02:20:22;;;;;;;33.90;16.98;;;;;;;;;;5013770;28;20466;-74
2023/12/14 02:22:52;;;;;;;29.80;14.02;;;;;;;;;;5012919;28;20105;-76
2023/12/14 02:25:18;;;;;;;32.35;15.00;;;;;;;;;;4993657;28;20030;-75
2023/12/14 02:27:44;;;;;;;27.40;13.43;;;;;;;;;;4993684;28;20038;-74
2023/12/14 02:30:11;;;;;;;27.10;13.07;;;;;;;;;;5012106;28;20036;-74
2023/12/14 02:32:38;;;;;;;22.10;11.77;;;;;;;;;;5011792;28;20030;-74
2023/12/14 02:35:04;;;;;;;28.95;13.32;;;;;;;;;;4978236;28;20034;-74
2023/12/14 02:37:30;;;;;;;24.98;12.10;;;;;;;;;;5012230;28;20068;-75
2023/12/14 02:39:56;;;;;;;28.17;13.02;;;;;;;;;;5011941;28;20025;-75
2023/12/14 02:42:21;;;;;;;29.98;13.32;;;;;;;;;;5012029;28;20040;-74
2023/12/14 02:44:47;;;;;;;30.48;14.70;;;;;;;;;;4994443;28;20033;-71
2023/12/14 02:47:12;;;;;;;28.23;13.40;;;;;;;;;;4995930;28;20026;-72
2023/12/14 02:49:38;;;;;;;28.90;13.70;;;;;;;;;;5023329;28;20406;-73
2023/12/14 02:52:05;;;;;;;36.90;14.93;;;;;;;;;;5005460;28;20041;-72
2023/12/14 02:54:31;;;;;;;30.15;14.52;;;;;;;;;;5014217;28;20152;-74
2023/12/14 02:56:56;;;;;;;31.27;12.63;;;;;;;;;;5013218;28;20029;-74
2023/12/14 02:59:22;;;;;;;26.67;12.48;;;;;;;;;;5012676;28;20058;-74
2023/12/14 03:01:47;;;;;;;34.40;14.38;;;;;;;;;;4995398;28;20038;-72
2023/12/14 03:04:13;;;;;;;29.42;13.70;;;;;;;;;;4994818;28;20076;-69
2023/12/14 03:06:38;;;;;;;30.10;14.05;;;;;;;;;;5012500;28;20039;-74
2023/12/14 03:09:04;;;;;;;29.67;13.35;;;;;;;;;;5012124;28;20112;-75
2023/12/14 03:11:30;;;;;;;29.10;12.10;;;;;;;;;;5014278;28;20030;-74
2023/12/14 03:13:56;;;;;;;27.92;12.27;;;;;;;;;;5017239;28;20025;-74
2023/12/14 03:16:22;;;;;;;29.17;12.63;;;;;;;;;;4999570;28;20028;-75
2023/12/14 03:18:52;;;;;;;40.50;12.80;;;;;;;;;;5005184;28;20490;-70
2023/12/14 03:21:18;;;;;;;28.90;12.77;;;;;;;;;;5020874;28;20113;-74
2023/12/14 03:23:44;;;;;;;27.77;12.38;;;;;;;;;;4999795;28;20032;-75
2023/12/14 03:26:09;;;;;;;27.63;12.30;;;;;;;;;;5015700;28;20105;-74
2023/12/14 03:28:35;;;;;;;28.63;11.82;;;;;;;;;;5015436;28;20025;-75
2023/12/14 03:31:00;;;;;;;25.70;11.18;;;;;;;;;;4997443;28;20058;-75
2023/12/14 03:33:26;;;;;;;25.40;12.70;;;;;;;;;;5015182;28;20034;-74
2023/12/14 03:35:51;;;;;;;22.55;10.40;;;;;;;;;;5014904;28;20075;-73
2023/12/14 03:38:17;;;;;;;26.13;11.82;;;;;;;;;;5014256;28;20034;-78
2023/12/14 03:40:42;;;;;;;22.75;10.95;;;;;;;;;;5013465;28;20130;-72
2023/12/14 03:43:08;;;;;;;24.27;11.02;;;;;;;;;;4996281;28;20250;-73
2023/12/14 03:45:33;;;;;;;27.13;12.55;;;;;;;;;;4995952;28;20117;-75
2023/12/14 03:47:59;;;;;;;24.10;11.38;;;;;;;;;;4996007;28;20505;-72
2023/12/14 03:50:25;;;;;;;24.40;11.65;;;;;;;;;;5013823;28;20149;-73
2023/12/14 03:52:51;;;;;;;22.35;11.02;;;;;;;;;;4979617;28;20038;-74
2023/12/14 03:55:16;;;;;;;27.02;11.88;;;;;;;;;;5014239;28;20036;-71
2023/12/14 03:57:42;;;;;;;24.83;11.02;;;;;;;;;;5014565;28;20100;-73
2023/12/14 04:00:10;;;;;;;21.95;11.25;;;;;;;;;;4995406;28;20426;-74
2023/12/14 04:02:36;;;;;;;32.63;12.25;;;;;;;;;;4997177;28;20034;-75
2023/12/14 04:05:01;;;;;;;24.85;11.57;;;;;;;;;;4997035;28;20041;-74
2023/12/14 04:07:27;;;;;;;23.65;10.32;;;;;;;;;;4996962;28;20029;-72
2023/12/14 04:09:53;;;;;;;29.08;10.80;;;;;;;;;;5014047;28;20032;-73
2023/12/14 04:12:18;;;;;;;27.50;11.93;;;;;;;;;;4995797;28;20041;-72
2023/12/14 04:14:44;;;;;;;20.42;11.23;;;;;;;;;;5012665;28;20474;-72
2023/12/14 04:17:10;;;;;;;20.08;10.82;;;;;;;;;;4994833;28;20474;-73
2023/12/14 04:19:39;;;;;;;24.80;11.85;;;;;;;;;;4994692;28;20040;-71
2023/12/14 04:22:05;;;;;;;25.42;12.23;;;;;;;;;;4994681;28;20034;-76
2023/12/14 04:24:30;;;;;;;28.02;13.05;;;;;;;;;;5011910;28;20029;-73
2023/12/14 04:26:56;;;;;;;22.65;10.75;;;;;;;;;;4994567;28;20080;-74
2023/12/14 04:29:21;;;;;;;24.85;12.95;;;;;;;;;;4994419;28;20033;-75
2023/12/14 04:31:48;;;;;;;28.67;13.32;;;;;;;;;;5012558;28;20109;-74
2023/12/14 04:34:15;;;;;;;27.77;13.13;;;;;;;;;;5011640;28;20546;-72
2023/12/14 04:36:45;;;;;;;27.88;13.02;;;;;;;;;;5011567;28;20021;-72
2023/12/14 04:39:10;;;;;;;27.15;13.10;;;;;;;;;;4994214;28;20057;-74
2023/12/14 04:41:36;;;;;;;28.77;14.00;;;;;;;;;;5011981;28;20034;-75
2023/12/14 04:44:01;;;;;;;28.30;13.05;;;;;;;;;;4994024;28;20037;-75
2023/12/14 04:46:27;;;;;;;27.50;13.48;;;;;;;;;;5011717;28;20033;-75
2023/12/14 04:48:52;;;;;;;35.92;13.35;;;;;;;;;;4993341;28;20061;-73
2023/12/14 04:51:18;;;;;;;35.53;15.37;;;;;;;;;;4993691;28;20048;-74
2023/12/14 04:53:43;;;;;;;29.50;13.48;;;;;;;;;;4993296;28;20061;-73
2023/12/14 04:56:12;;;;;;;34.97;14.37;;;;;;;;;;4993151;28;20033;-75
2023/12/14 04:58:41;;;;;;;24.83;11.67;;;;;;;;;;4938874;28;1571911;-71
2023/12/14 05:01:07;;;;;;;29.13;14.10;;;;;;;;;;5011125;28;20040;-73
2023/12/14 05:03:34;;;;;;;25.30;13.73;;;;;;;;;;5011834;28;20505;-73
2023/12/14 05:06:00;;;;;;;28.60;13.27;;;;;;;;;;4994220;28;20037;-75
2023/12/14 05:08:26;;;;;;;29.50;13.95;;;;;;;;;;5012395;28;20426;-75
2023/12/14 05:10:52;;;;;;;33.38;16.15;;;;;;;;;;4993766;28;20096;-74
2023/12/14 05:13:17;;;;;;;27.25;13.88;;;;;;;;;;4994473;28;20041;-73
2023/12/14 05:15:43;;;;;;;27.63;13.23;;;;;;;;;;5011406;28;20038;-71
2023/12/14 05:18:09;;;;;;;27.73;13.35;;;;;;;;;;5012163;28;20109;-74
2023/12/14 05:20:35;;;;;;;36.00;14.60;;;;;;;;;;4993897;28;20437;-73
2023/12/14 05:23:00;;;;;;;26.10;13.33;;;;;;;;;;4994020;28;20030;-73
2023/12/14 05:25:26;;;;;;;30.45;13.43;;;;;;;;;;4994361;28;20410;-73
2023/12/14 05:27:51;;;;;;;31.37;14.10;;;;;;;;;;4994016;28;20041;-74
2023/12/14 05:30:17;;;;;;;34.28;13.70;;;;;;;;;;4994903;28;20048;-73
2023/12/14 05:32:43;;;;;;;27.77;13.43;;;;;;;;;;4994926;28;20045;-73
2023/12/14 05:35:09;;;;;;;28.57;14.43;;;;;;;;;;5011699;28;20032;-74
2023/12/14 05:37:35;;;;;;;45.43;13.93;;;;;;;;;;5012200;28;20395;-76
2023/12/14 05:40:02;;;;;;;30.40;13.77;;;;;;;;;;5012764;28;20033;-74
2023/12/14 05:42:27;;;;;;;32.27;13.43;;;;;;;;;;5011721;28;20022;-75
2023/12/14 05:44:53;;;;;;;32.00;14.90;;;;;;;;;;5011821;28;20509;-73
2023/12/14 05:47:19;;;;;;;31.95;14.70;;;;;;;;;;4993768;28;20494;-74
2023/12/14 05:49:44;;;;;;;32.23;14.53;;;;;;;;;;4993973;28;20072;-73
2023/12/14 05:52:11;;;;;;;30.37;13.57;;;;;;;;;;4994409;28;20343;-74
2023/12/14 05:54:37;;;;;;;31.27;13.80;;;;;;;;;;5011648;28;20105;-73
2023/12/14 05:57:03;;;;;;;33.08;14.57;;;;;;;;;;5011165;28;20474;-74
2023/12/14 05:59:29;;;;;;;32.10;14.80;;;;;;;;;;4993045;28;20086;-74
2023/12/14 06:01:58;;;;;;;29.47;12.70;;;;;;;;;;4993698;28;20136;-75
2023/12/14 06:04:27;;;;;;;29.58;13.75;;;;;;;;;;4993190;28;20030;-73
2023/12/14 06:06:53;;;;;;;24.97;12.87;;;;;;;;;;4993542;28;20034;-73
2023/12/14 06:09:26;;;;;;;35.83;14.17;;;;;;;;;;4997391;28;20040;-73
2023/12/14 06:11:52;;;;;;;31.10;14.67;;;;;;;;;;5014930;28;20057;-73
2023/12/14 06:14:18;;;;;;;26.87;14.17;;;;;;;;;;5006170;28;20041;-70
2023/12/14 06:16:43;;;;;;;27.10;13.60;;;;;;;;;;4982603;28;20104;-72
2023/12/14 06:19:10;;;;;;;24.47;12.40;;;;;;;;;;5022607;28;20112;-73
2023/12/14 06:21:36;;;;;;;31.70;14.07;;;;;;;;;;5026288;28;20080;-72
2023/12/14 06:24:02;;;;;;;27.40;13.80;;;;;;;;;;4996980;28;20026;-75
2023/12/14 06:26:28;;;;;;;34.07;14.93;;;;;;;;;;5016090;28;20545;-74
2023/12/14 06:28:54;;;;;;;26.20;12.33;;;;;;;;;;5012261;28;20328;-73
2023/12/14 06:31:22;;;;;;;29.30;13.67;;;;;;;;;;5011516;28;20125;-75
2023/12/14 06:33:48;;;;;;;34.07;15.63;;;;;;;;;;4997471;28;20030;-74
2023/12/14 06:36:19;;;;;;;26.03;14.33;;;;;;;;;;5023178;28;20081;-73
2023/12/14 06:38:44;;;;;;;30.40;14.40;;;;;;;;;;5024546;28;20045;-74
2023/12/14 06:41:21;;;;;;;35.53;15.47;;;;;;;;;;5020580;28;20592;-73
2023/12/14 06:43:46;;;;;;;37.40;15.90;;;;;;;;;;5007691;28;20030;-77
2023/12/14 06:46:12;;;;;;;28.07;12.93;;;;;;;;;;5012085;28;20037;-74
2023/12/14 06:48:38;;;;;;;30.50;13.47;;;;;;;;;;5011753;28;20034;-74
2023/12/14 06:51:04;;;;;;;30.70;14.13;;;;;;;;;;4992455;28;20037;-74
2023/12/14 06:53:30;;;;;;;30.30;14.97;;;;;;;;;;4976011;28;20053;-75
2023/12/14 06:55:55;;;;;;;26.75;13.65;;;;;;;;;;4992115;28;20030;-72
2023/12/14 06:58:21;;;;;;;31.23;13.50;;;;;;;;;;5014127;28;20029;-75
2023/12/14 07:00:47;;;;;;;33.45;13.80;;;;;;;;;;5014161;28;20057;-71
2023/12/14 07:03:13;;;;;;;33.33;14.75;;;;;;;;;;4992756;28;20038;-75
2023/12/14 07:05:39;;;;;;;31.83;14.90;;;;;;;;;;5010626;28;20433;-74
2023/12/14 07:08:05;;;;;;;30.43;14.13;;;;;;;;;;4975544;28;20132;-75
2023/12/14 07:10:31;;;;;;;28.17;14.90;;;;;;;;;;5000811;28;20163;-74
2023/12/14 07:12:56;;;;;;;32.30;15.50;;;;;;;;;;5012421;28;20041;-73
2023/12/14 07:15:22;;;;;;;29.58;14.32;;;;;;;;;;5004673;28;20037;-75
2023/12/14 07:17:48;;;;;;;30.42;14.18;;;;;;;;;;5021591;28;20116;-73
2023/12/14 07:20:13;;;;;;;30.50;15.53;;;;;;;;;;5015025;28;20077;-73
2023/12/14 07:22:40;;;;;;;29.70;14.80;;;;;;;;;;5013719;28;20047;-75
2023/12/14 07:25:06;;;;;;;29.63;13.98;;;;;;;;;;5003578;28;20025;-70
2023/12/14 07:27:31;;;;;;;26.83;15.40;;;;;;;;;;5015442;28;20029;-71
2023/12/14 07:29:57;;;;;;;34.03;16.40;;;;;;;;;;5024478;28;20037;-72
2023/12/14 07:32:23;;;;;;;31.63;14.97;;;;;;;;;;5026942;28;20101;-73
2023/12/14 07:34:49;;;;;;;34.50;15.85;;;;;;;;;;5026051;28;20033;-76
2023/12/14 07:37:15;;;;;;;36.80;16.27;;;;;;;;;;5004142;28;20036;-73
2023/12/14 07:39:41;;;;;;;38.67;17.23;;;;;;;;;;5012243;28;20041;-75
2023/12/14 07:42:06;;;;;;;39.90;16.97;;;;;;;;;;5014737;28;20025;-76
2023/12/14 07:44:33;;;;;;;33.10;16.27;;;;;;;;;;5019281;28;20022;-73
2023/12/14 07:47:02;;;;;;;33.33;17.80;;;;;;;;;;5007899;28;20451;-75
2023/12/14 07:49:29;;;;;;;38.13;16.02;;;;;;;;;;5019422;28;20026;-74
2023/12/14 07:51:55;;;;;;;33.15;16.25;;;;;;;;;;4989042;28;20438;-73
2023/12/14 07:54:21;;;;;;;31.05;15.90;;;;;;;;;;4997243;28;20122;-74
2023/12/14 07:56:47;;;;;;;40.22;16.45;;;;;;;;;;4994815;28;20033;-75
2023/12/14 07:59:13;;;;;;;30.55;16.02;;;;;;;;;;5017682;28;20410;-73
2023/12/14 08:01:38;;;;;;;31.00;14.30;;;;;;;;;;5021802;28;20049;-74
2023/12/14 08:04:07;;;;;;;32.03;16.63;;;;;;;;;;4989087;28;20486;-74
2023/12/14 08:06:33;;;;;;;30.33;14.80;;;;;;;;;;5005610;28;20036;-71
2023/12/14 08:08:58;;;;;;;30.55;15.85;;;;;;;;;;5010343;28;20034;-76
2023/12/14 08:11:24;;;;;;;27.83;14.90;;;;;;;;;;4997691;28;20461;-74
2023/12/14 08:13:50;;;;;;;28.60;15.33;;;;;;;;;;5012078;28;20037;-77
2023/12/14 08:16:17;;;;;;;27.13;15.30;;;;;;;;;;5020351;28;20040;-74
2023/12/14 08:19:23;;;;;;;30.13;15.23;;;;;;;;;;5018159;28;20025;-75
2023/12/14 08:22:11;;;;;;;31.38;16.35;;;;;;;;;;5001996;28;20042;-71
2023/12/14 08:24:41;;;;;;;32.30;15.10;;;;;;;;;;5014740;28;20030;-72
2023/12/14 08:27:07;;;;;;;31.75;15.10;;;;;;;;;;5010889;28;20048;-72
2023/12/14 08:29:32;;;;;;;25.00;14.43;;;;;;;;;;5019101;28;20076;-73
2023/12/14 08:31:59;;;;;;;29.92;14.57;;;;;;;;;;5000921;28;20053;-73
2023/12/14 08:34:25;;;;;;;28.00;14.00;;;;;;;;;;4997556;28;20061;-74
2023/12/14 08:36:51;;;;;;;23.30;13.57;;;;;;;;;;5017650;28;20335;-76
2023/12/14 08:39:18;;;;;;;30.13;15.60;;;;;;;;;;5018848;28;20991;-74
2023/12/14 08:41:47;;;;;;;30.15;13.93;;;;;;;;;;5017370;28;20160;-75
2023/12/14 08:44:14;;;;;;;33.15;14.40;;;;;;;;;;4994048;28;20626;-76
2023/12/14 08:46:41;;;;;;;24.35;12.85;;;;;;;;;;4982459;28;20129;-74
2023/12/14 08:49:06;;;;;;;20.98;12.80;;;;;;;;;;5009300;28;20037;-76
2023/12/14 08:51:32;;;;;;;29.27;13.57;;;;;;;;;;5019503;28;20040;-74
2023/12/14 08:53:57;;;;;;;26.17;12.98;;;;;;;;;;5015653;28;20446;-76
2023/12/14 08:56:23;;;;;;;24.60;12.15;;;;;;;;;;5016257;28;20029;-72
2023/12/14 08:58:49;;;;;;;25.05;14.88;;;;;;;;;;5021960;28;20133;-77
2023/12/14 09:01:23;;;;;;;26.27;13.20;;;;;;;;;;5024278;28;20052;-77
2023/12/14 09:03:49;;;;;;;24.75;13.68;;;;;;;;;;5022700;28;20184;-73
2023/12/14 09:06:16;;;;;;;28.60;13.25;;;;;;;;;;5014440;28;20109;-70
2023/12/14 09:08:42;;;;;;;22.13;12.65;;;;;;;;;;5006094;28;20135;-72
2023/12/14 09:11:08;;;;;;;30.05;13.65;;;;;;;;;;5007218;28;20450;-74
2023/12/14 09:13:35;;;;;;;24.17;12.40;;;;;;;;;;5003694;28;20046;-73
2023/12/14 09:16:00;;;;;;;27.70;12.68;;;;;;;;;;5015677;28;20498;-75
2023/12/14 09:18:26;;;;;;;19.95;11.40;;;;;;;;;;5015905;28;20044;-73
2023/12/14 09:20:51;;;;;;;28.40;13.20;;;;;;;;;;4998978;28;20125;-74
2023/12/14 09:23:18;;;;;;;27.73;12.57;;;;;;;;;;5011350;28;20521;-76
2023/12/14 09:25:46;;;;;;;24.83;12.40;;;;;;;;;;4995207;28;20084;-73
2023/12/14 09:28:11;;;;;;;27.98;14.75;;;;;;;;;;4998340;28;20109;-75
2023/12/14 09:30:37;;;;;;;25.90;13.90;;;;;;;;;;5016521;28;20039;-76
2023/12/14 09:33:03;;;;;;;23.40;11.75;;;;;;;;;;5022874;28;20710;-76
2023/12/14 09:35:28;;;;;;;29.75;12.75;;;;;;;;;;5010308;28;20373;-75
2023/12/14 09:37:56;;;;;;;23.63;11.50;;;;;;;;;;5016047;28;20034;-73
2023/12/14 09:40:22;;;;;;;22.67;12.50;;;;;;;;;;5014145;28;20544;-73
2023/12/14 09:42:49;;;;;;;24.75;13.48;;;;;;;;;;5016371;28;20413;-74
2023/12/14 09:45:18;;;;;;;25.73;12.02;;;;;;;;;;4994911;28;20072;-73
2023/12/14 09:47:46;;;;;;;24.42;11.02;;;;;;;;;;5018637;28;20033;-74
2023/12/14 09:50:14;;;;;;;20.48;11.90;;;;;;;;;;5001443;28;20112;-76
2023/12/14 09:52:44;;;;;;;20.45;11.15;;;;;;;;;;5004039;28;20132;-73
2023/12/14 09:55:10;;;;;;;19.70;11.63;;;;;;;;;;4991673;28;20060;-74
2023/12/14 09:57:37;;;;;;;22.05;10.50;;;;;;;;;;5020197;28;20529;-73
2023/12/14 10:00:07;;;;;;;73.25;15.07;;;;;;;;;;5010586;28;20387;-73
2023/12/14 10:02:32;;;;;;;24.92;11.98;;;;;;;;;;5012449;28;20029;-73
2023/12/14 10:04:58;;;;;;;19.70;10.80;;;;;;;;;;5007730;28;20202;-75
2023/12/14 10:07:24;;;;;;;24.00;13.32;;;;;;;;;;5019622;28;20021;-76
2023/12/14 10:09:52;;;;;;;24.83;13.13;;;;;;;;;;4993623;28;20071;-75
2023/12/14 10:12:19;;;;;;;20.65;11.23;;;;;;;;;;5020330;28;20117;-76
2023/12/14 10:14:44;;;;;;;19.95;11.13;;;;;;;;;;4996433;28;20048;-70
2023/12/14 10:17:31;;;;;;;22.70;11.55;;;;;;;;;;4996512;28;20030;-76
2023/12/14 10:20:00;;;;;;;16.75;10.52;;;;;;;;;;5013504;28;20449;-75
2023/12/14 10:22:28;;;;;;;18.48;10.35;;;;;;;;;;4998159;28;20037;-74
2023/12/14 10:24:54;;;;;;;16.65;10.55;;;;;;;;;;5013884;28;20059;-75
2023/12/14 10:27:26;;;;;;;14.43;8.25;;;;;;;;;;4990470;28;20471;-74
2023/12/14 10:29:52;;;;;;;10.68;6.13;;;;;;;;;;5012720;28;20374;-77
2023/12/14 10:32:19;;;;;;;12.93;6.40;;;;;;;;;;5019258;28;20072;-77
2023/12/14 10:34:45;;;;;;;10.10;6.05;;;;;;;;;;4991738;28;20050;-72
2023/12/14 10:37:13;;;;;;;13.07;6.53;;;;;;;;;;5011167;28;20034;-73
2023/12/14 10:39:42;;;;;;;10.88;6.32;;;;;;;;;;4993000;28;20177;-75
2023/12/14 10:42:12;;;;;;;12.07;6.93;;;;;;;;;;5016591;28;20044;-74
2023/12/14 10:44:38;;;;;;;11.15;5.40;;;;;;;;;;4995225;28;20061;-72
2023/12/14 10:47:07;;;;;;;7.65;4.38;;;;;;;;;;4991595;28;20046;-76
2023/12/14 10:49:34;;;;;;;12.40;5.70;;;;;;;;;;4995483;28;20032;-72
2023/12/14 10:52:03;;;;;;;8.05;4.18;;;;;;;;;;4995235;28;20030;-73
2023/12/14 10:54:36;;;;;;;8.02;3.45;;;;;;;;;;5003501;28;20053;-73
2023/12/14 10:57:03;;;;;;;8.38;4.53;;;;;;;;;;4977628;28;20450;-75
2023/12/14 10:59:30;;;;;;;6.95;3.67;;;;;;;;;;5019539;28;20512;-75
2023/12/14 11:01:59;;;;;;;6.07;3.75;;;;;;;;;;5017279;28;20043;-73
2023/12/14 11:04:27;;;;;;;8.70;5.18;;;;;;;;;;4998223;28;20750;-76
2023/12/14 11:06:59;;;;;;;6.90;4.20;;;;;;;;;;5013540;28;20065;-76
2023/12/14 11:09:27;;;;;;;8.32;3.88;;;;;;;;;;4998546;28;20037;-76
2023/12/14 11:11:59;;;;;;;9.55;4.55;;;;;;;;;;5013429;28;20026;-77
2023/12/14 11:14:26;;;;;;;6.55;3.25;;;;;;;;;;5015594;28;20396;-73
2023/12/14 11:17:18;;;;;;;7.18;4.47;;;;;;;;;;5011839;28;20040;-77
2023/12/14 11:19:44;;;;;;;8.13;3.70;;;;;;;;;;4988328;28;20108;-76
2023/12/14 11:22:12;;;;;;;8.13;4.10;;;;;;;;;;4992094;28;20319;-75
2023/12/14 11:24:50;;;;;;;9.75;4.38;;;;;;;;;;5007938;28;20490;-76
2023/12/14 11:27:19;;;;;;;9.98;3.78;;;;;;;;;;5011749;28;20120;-77
2023/12/14 11:29:45;;;;;;;11.73;3.85;;;;;;;;;;5014669;28;20036;-75
2023/12/14 11:32:11;;;;;;;9.80;3.53;;;;;;;;;;5021366;28;20036;-75
2023/12/14 11:34:40;;;;;;;7.07;3.58;;;;;;;;;;5024959;28;20038;-72
2023/12/14 11:37:07;;;;;;;8.73;3.75;;;;;;;;;;5041239;28;20045;-72
2023/12/14 11:39:33;;;;;;;5.25;3.13;;;;;;;;;;5032117;28;20060;-74
2023/12/14 11:42:03;;;;;;;9.98;3.53;;;;;;;;;;5019484;28;20029;-73
2023/12/14 11:44:30;;;;;;;6.13;2.55;;;;;;;;;;5017312;28;20037;-79
2023/12/14 11:46:56;;;;;;;5.53;3.60;;;;;;;;;;5006967;28;20025;-77
2023/12/14 11:49:26;;;;;;;5.28;2.88;;;;;;;;;;5003491;28;20061;-75
2023/12/14 11:51:53;;;;;;;10.82;3.92;;;;;;;;;;4966663;28;20563;-73
2023/12/14 11:54:19;;;;;;;5.28;2.70;;;;;;;;;;5006003;28;20124;-75
2023/12/14 11:56:50;;;;;;;4.80;2.53;;;;;;;;;;5013528;28;20121;-79
2023/12/14 11:59:19;;;;;;;7.13;2.75;;;;;;;;;;4996624;28;20526;-78
2023/12/14 12:02:00;;;;;;;6.25;2.63;;;;;;;;;;5013853;28;20137;-77
2023/12/14 12:04:27;;;;;;;5.25;2.97;;;;;;;;;;4998257;28;20041;-73
2023/12/14 12:07:09;;;;;;;6.03;2.47;;;;;;;;;;5025868;28;20056;-74
2023/12/14 12:09:40;;;;;;;6.35;2.70;;;;;;;;;;5019362;28;20109;-75
2023/12/14 12:12:08;;;;;;;4.65;2.38;;;;;;;;;;5002431;28;20116;-75
2023/12/14 12:14:34;;;;;;;5.35;2.45;;;;;;;;;;5012867;28;20375;-74
2023/12/14 12:17:00;;;;;;;4.47;2.33;;;;;;;;;;4986627;28;20044;-76
2023/12/14 12:19:25;;;;;;;3.15;2.08;;;;;;;;;;5020336;28;20362;-73
2023/12/14 12:21:52;;;;;;;4.18;2.17;;;;;;;;;;5017514;28;20033;-76
2023/12/14 12:24:18;;;;;;;4.20;2.13;;;;;;;;;;5018486;28;20034;-74
2023/12/14 12:26:45;;;;;;;5.00;2.55;;;;;;;;;;4992821;28;20033;-74
2023/12/14 12:29:10;;;;;;;3.50;2.25;;;;;;;;;;4994111;28;20470;-76
2023/12/14 12:31:37;;;;;;;4.90;2.38;;;;;;;;;;5019392;28;20033;-75
2023/12/14 12:34:03;;;;;;;3.95;2.63;;;;;;;;;;4999565;28;20065;-74
2023/12/14 12:36:30;;;;;;;11.55;5.95;;;;;;;;;;5018756;28;20548;-75
2023/12/14 12:38:55;;;;;;;11.43;4.10;;;;;;;;;;5012131;28;20034;-76
2023/12/14 12:41:21;;;;;;;3.58;2.20;;;;;;;;;;5016758;28;20433;-77
2023/12/14 12:43:48;;;;;;;5.95;2.70;;;;;;;;;;5013606;28;20026;-74
2023/12/14 12:46:13;;;;;;;6.57;2.47;;;;;;;;;;5015968;28;20033;-75
2023/12/14 12:48:39;;;;;;;5.68;2.45;;;;;;;;;;5017807;28;20103;-77
2023/12/14 12:51:05;;;;;;;4.90;2.40;;;;;;;;;;5009307;28;20030;-74
2023/12/14 12:53:33;;;;;;;5.38;2.55;;;;;;;;;;5010713;28;20106;-77
2023/12/14 12:55:58;;;;;;;7.50;2.47;;;;;;;;;;5016126;28;20405;-77
2023/12/14 12:58:24;;;;;;;4.30;2.50;;;;;;;;;;5010838;28;20028;-77
2023/12/14 13:00:57;;;;;;;6.57;2.50;;;;;;;;;;5011871;28;20138;-75
2023/12/14 13:03:23;;;;;;;4.68;2.80;;;;;;;;;;4972844;28;20122;-74
2023/12/14 13:05:48;;;;;;;2.72;2.10;;;;;;;;;;5011270;28;20128;-75
2023/12/14 13:08:14;;;;;;;3.47;2.22;;;;;;;;;;5009347;28;20536;-75
2023/12/14 13:10:42;;;;;;;4.80;2.22;;;;;;;;;;5017027;28;20340;-78
2023/12/14 13:13:09;;;;;;;2.78;2.08;;;;;;;;;;4992891;28;20041;-75
2023/12/14 13:15:54;;;;;;;9.07;2.53;;;;;;;;;;5009944;28;20407;-73
2023/12/14 13:18:20;;;;;;;6.75;2.72;;;;;;;;;;5010133;28;20042;-77
2023/12/14 13:20:46;;;;;;;4.38;2.10;;;;;;;;;;4994187;28;20104;-74
2023/12/14 13:23:14;;;;;;;4.93;2.40;;;;;;;;;;5018098;28;20025;-73
2023/12/14 13:25:40;;;;;;;5.03;1.92;;;;;;;;;;5014577;28;20029;-76
2023/12/14 13:28:05;;;;;;;5.20;3.10;;;;;;;;;;4997752;28;20049;-75
2023/12/14 13:30:31;;;;;;;4.22;2.60;;;;;;;;;;5015641;28;20370;-76
2023/12/14 13:32:56;;;;;;;8.38;2.45;;;;;;;;;;4996365;28;20076;-76
2023/12/14 13:35:24;;;;;;;4.30;2.33;;;;;;;;;;5017844;28;20034;-75
2023/12/14 13:37:50;;;;;;;4.35;2.60;;;;;;;;;;5018661;28;20063;-74
2023/12/14 13:40:16;;;;;;;7.63;2.60;;;;;;;;;;5023984;28;20033;-76
2023/12/14 13:42:42;;;;;;;6.00;3.03;;;;;;;;;;5015199;28;20026;-78
2023/12/14 13:45:08;;;;;;;4.60;2.60;;;;;;;;;;4990525;28;20049;-72
2023/12/14 13:47:34;;;;;;;13.70;2.42;;;;;;;;;;5012805;28;20033;-74
2023/12/14 13:50:00;;;;;;;5.28;2.40;;;;;;;;;;5012213;28;20500;-77
2023/12/14 13:52:27;;;;;;;8.52;2.38;;;;;;;;;;5017609;28;20071;-72
2023/12/14 13:54:54;;;;;;;2.30;1.60;;;;;;;;;;4998580;28;20033;-77
2023/12/14 13:57:22;;;;;;;4.50;2.00;;;;;;;;;;4994622;28;20037;-76
2023/12/14 13:59:49;;;;;;;3.28;1.67;;;;;;;;;;5015355;28;20053;-75
2023/12/14 14:02:15;;;;;;;5.15;1.92;;;;;;;;;;5001460;28;20094;-75
2023/12/14 14:04:43;;;;;;;5.85;2.13;;;;;;;;;;5021916;28;20034;-76
2023/12/14 14:07:10;;;;;;;4.82;2.00;;;;;;;;;;5017967;28;20068;-75
2023/12/14 14:09:39;;;;;;;4.82;2.50;;;;;;;;;;5014598;28;20048;-77
2023/12/14 14:12:05;;;;;;;3.08;1.83;;;;;;;;;;5023490;28;20033;-74
2023/12/14 14:14:30;;;;;;;6.10;2.13;;;;;;;;;;5019713;28;20161;-70
2023/12/14 14:16:57;;;;;;;5.32;2.45;;;;;;;;;;5014041;28;20033;-77
2023/12/14 14:19:24;;;;;;;3.50;2.30;;;;;;;;;;5001871;28;20034;-77
2023/12/14 14:21:49;;;;;;;5.03;3.35;;;;;;;;;;4999150;28;20053;-77